createdAt,value
2023-02-14T10:22:43.402Z,25.88
2023-02-14T10:29:18.182Z,23.08
2023-02-14T10:32:28.520Z,23.10
2023-02-14T10:35:42.898Z,26.83
2023-02-14T10:38:52.744Z,20.25
2023-02-14T10:42:01.340Z,18.98
2023-02-14T10:45:16.387Z,21.88
2023-02-14T10:48:26.233Z,18.67
2023-02-14T10:51:36.702Z,17.48
2023-02-14T10:54:41.167Z,23.20
2023-02-14T10:57:53.586Z,17.90
2023-02-14T11:01:06.803Z,20.45
2023-02-14T11:04:13.258Z,19.10
2023-02-14T11:07:17.317Z,15.77
2023-02-14T11:10:24.260Z,19.42
2023-02-14T11:13:34.967Z,15.15
2023-02-14T11:16:44.270Z,16.45
2023-02-14T11:19:58.762Z,14.38
2023-02-14T11:23:01.508Z,14.80
2023-02-14T11:26:06.634Z,15.50
2023-02-14T11:29:15.765Z,15.77
2023-02-14T11:32:25.710Z,15.52
2023-02-14T11:35:34.664Z,13.30
2023-02-14T11:38:40.140Z,13.98
2023-02-14T11:41:51.086Z,15.27
2023-02-14T11:44:56.213Z,16.35
2023-02-14T11:48:19.994Z,18.55
2023-02-14T11:51:34.535Z,16.13
2023-02-14T11:54:38.509Z,15.82
2023-02-14T11:57:41.286Z,12.60
2023-02-14T12:00:52.715Z,16.00
2023-02-14T12:04:00.713Z,18.27
2023-02-14T12:07:18.175Z,16.33
2023-02-14T12:10:25.006Z,18.15
2023-02-14T12:13:27.633Z,15.18
2023-02-14T12:16:36.159Z,15.05
2023-02-14T12:19:46.673Z,15.10
2023-02-14T12:22:56.106Z,13.15
2023-02-14T12:26:04.046Z,14.27
2023-02-14T12:29:13.521Z,14.25
2023-02-14T12:32:22.266Z,16.40
2023-02-14T12:35:43.676Z,15.32
2023-02-14T12:38:56.764Z,17.75
2023-02-14T12:42:07.973Z,13.82
2023-02-14T12:45:18.338Z,14.15
2023-02-14T12:48:28.308Z,15.35
2023-02-14T12:51:43.359Z,15.43
2023-02-14T12:54:58.439Z,16.52
2023-02-14T12:58:06.593Z,19.38
2023-02-14T13:01:38.552Z,21.58
2023-02-14T13:04:53.959Z,20.30
2023-02-14T13:08:15.643Z,21.17
2023-02-14T13:11:29.159Z,20.65
2023-02-14T13:14:49.456Z,23.65
2023-02-14T13:17:57.770Z,21.42
2023-02-14T13:21:03.985Z,25.45
2023-02-14T13:24:16.356Z,22.48
2023-02-14T13:27:23.196Z,25.52
2023-02-14T13:30:32.535Z,26.48
2023-02-14T13:33:38.253Z,21.13
2023-02-14T13:36:42.379Z,21.20
2023-02-14T13:39:50.085Z,24.48
2023-02-14T13:42:55.264Z,26.35
2023-02-14T13:45:57.777Z,28.92
2023-02-14T13:49:02.663Z,22.70
2023-02-14T13:52:07.322Z,27.15
2023-02-14T13:55:18.789Z,26.08
2023-02-14T13:58:22.018Z,31.83
2023-02-14T14:01:36.217Z,26.80
2023-02-14T14:04:38.975Z,28.73
2023-02-14T14:07:41.462Z,28.75
2023-02-14T14:10:47.564Z,26.80
2023-02-14T14:13:58.074Z,27.10
2023-02-14T14:17:02.310Z,26.83
2023-02-14T14:20:38.944Z,28.13
2023-02-14T14:23:45.601Z,28.88
2023-02-14T14:26:50.075Z,24.95
2023-02-14T14:29:55.518Z,26.25
